createdAt,value
2019-01-11T00:01:45.952Z,0.30
2019-01-11T00:04:41.144Z,0.40
2019-01-11T00:07:26.109Z,0.60
2019-01-11T00:10:10.662Z,0.90
2019-01-11T00:13:04.161Z,1.30
2019-01-11T00:15:48.805Z,1.50
2019-01-11T00:18:33.493Z,1.50
2019-01-11T00:21:18.273Z,1.30
2019-01-11T00:24:03.200Z,1.20
2019-01-11T00:26:48.546Z,1.00
2019-01-11T00:29:42.401Z,0.90
2019-01-11T00:32:27.001Z,0.80
2019-01-11T00:35:12.190Z,0.80
2019-01-11T00:37:57.277Z,0.90
2019-01-11T00:40:51.098Z,0.90
2019-01-11T00:43:45.685Z,0.90
2019-01-11T00:46:30.467Z,0.90
2019-01-11T00:49:15.233Z,1.10
2019-01-11T00:52:08.757Z,1.40
2019-01-11T00:54:53.892Z,1.80
2019-01-11T00:57:47.829Z,1.90
2019-01-11T01:00:41.826Z,2.00
2019-01-11T01:03:26.775Z,2.10
2019-01-11T01:06:20.714Z,2.10
2019-01-11T01:09:15.170Z,2.10
2019-01-11T01:12:09.022Z,1.90
2019-01-11T01:15:04.193Z,1.80
2019-01-11T01:17:48.892Z,1.60
2019-01-11T01:20:36.677Z,1.20
2019-01-11T01:23:21.617Z,0.90
2019-01-11T01:26:05.891Z,0.70
2019-01-11T01:28:50.969Z,0.70
2019-01-11T01:31:36.125Z,0.60
2019-01-11T01:34:20.912Z,0.40
2019-01-11T01:37:05.926Z,0.30
2019-01-11T01:39:50.661Z,0.40
2019-01-11T01:42:35.386Z,0.40
2019-01-11T01:45:20.269Z,0.40
2019-01-11T01:48:05.053Z,0.30
2019-01-11T01:50:49.657Z,0.30
2019-01-11T01:53:34.849Z,0.30
2019-01-11T01:56:19.829Z,0.20
2019-01-11T01:59:13.724Z,0.30
2019-01-11T02:01:58.476Z,0.40
2019-01-11T02:04:42.690Z,0.40
2019-01-11T02:07:27.434Z,0.50
2019-01-11T02:10:11.880Z,0.40
2019-01-11T02:13:05.405Z,0.40
2019-01-11T02:15:49.962Z,0.40
2019-01-11T02:18:34.613Z,0.50
2019-01-11T02:21:18.813Z,0.50
2019-01-11T02:24:12.209Z,0.50
2019-01-11T02:26:56.725Z,0.40
2019-01-11T02:29:41.230Z,0.20
2019-01-11T02:32:25.622Z,0.00
2019-01-11T02:35:18.833Z,-0.10
2019-01-11T02:38:03.958Z,-0.30
2019-01-11T02:40:48.728Z,-0.20
2019-01-11T02:43:33.260Z,-0.20
2019-01-11T02:46:17.805Z,-0.30
2019-01-11T02:49:02.722Z,-0.40
2019-01-11T02:51:47.210Z,-0.40
2019-01-11T02:54:31.803Z,-0.40
2019-01-11T02:57:25.135Z,-0.30
2019-01-11T03:00:09.842Z,-0.20
2019-01-11T03:02:54.964Z,-0.30
2019-01-11T03:05:39.781Z,-0.30
2019-01-11T03:08:24.685Z,-0.40
2019-01-11T03:11:18.778Z,-0.40
2019-01-11T03:14:12.585Z,-0.40
2019-01-11T03:16:57.577Z,-0.40
2019-01-11T03:19:51.057Z,-0.30
2019-01-11T03:22:36.058Z,-0.30
2019-01-11T03:25:20.446Z,-0.30
2019-01-11T03:28:05.029Z,-0.20
2019-01-11T03:30:49.854Z,-0.20
2019-01-11T03:33:34.622Z,-0.10
2019-01-11T03:36:19.597Z,0.00
2019-01-11T03:39:04.590Z,0.00
2019-01-11T03:41:55.213Z,0.10
2019-01-11T03:44:50.358Z,0.10
2019-01-11T03:47:43.836Z,0.10
2019-01-11T03:50:28.654Z,0.10
2019-01-11T03:53:13.286Z,0.10
2019-01-11T03:55:57.865Z,0.10
2019-01-11T03:58:42.333Z,0.10
2019-01-11T04:01:35.753Z,0.20
2019-01-11T04:04:20.622Z,0.30
2019-01-11T04:07:05.472Z,0.30
2019-01-11T04:09:50.134Z,0.30
2019-01-11T04:12:34.974Z,0.30
2019-01-11T04:15:20.108Z,0.30
2019-01-11T04:21:20.770Z,0.40
2019-01-11T04:24:05.661Z,0.40
2019-01-11T04:26:50.461Z,0.40
2019-01-11T04:29:35.098Z,0.30
2019-01-11T04:32:19.493Z,0.30
2019-01-11T04:35:12.924Z,0.30
2019-01-11T04:37:58.027Z,0.10
2019-01-11T04:40:42.379Z,0.10
2019-01-11T04:43:26.806Z,0.10
2019-01-11T04:46:11.127Z,0.00
2019-01-11T04:49:04.699Z,-0.10
2019-01-11T04:51:49.270Z,0.00
2019-01-11T04:54:34.129Z,0.00
2019-01-11T04:57:18.650Z,0.00
2019-01-11T05:00:03.650Z,0.00
2019-01-11T05:02:48.804Z,0.00
2019-01-11T05:05:33.782Z,-0.10
2019-01-11T05:08:18.525Z,-0.20
2019-01-11T05:11:03.289Z,-0.20
2019-01-11T05:13:52.724Z,-0.20
2019-01-11T05:16:39.528Z,-0.20
2019-01-11T05:19:22.726Z,-0.20
2019-01-11T05:22:16.440Z,-0.20
2019-01-11T05:25:01.384Z,-0.20
2019-01-11T05:27:46.094Z,-0.10
2019-01-11T05:30:31.186Z,0.00
2019-01-11T05:33:24.790Z,0.10
2019-01-11T05:36:09.085Z,0.10
2019-01-11T05:38:53.730Z,0.00
2019-01-11T05:41:47.109Z,-0.10
2019-01-11T05:44:31.865Z,-0.20
2019-01-11T05:47:16.181Z,-0.20
2019-01-11T05:50:00.756Z,-0.20
2019-01-11T05:52:44.837Z,-0.20
2019-01-11T05:55:48.670Z,-0.10
2019-01-11T05:58:55.623Z,-0.10
2019-01-11T06:01:40.102Z,-0.10
2019-01-11T06:04:43.811Z,-0.10
2019-01-11T06:10:55.365Z,-0.20
2019-01-11T06:13:48.958Z,-0.30
2019-01-11T06:16:33.713Z,-0.20
2019-01-11T06:19:18.145Z,-0.20
2019-01-11T06:22:02.782Z,-0.10
2019-01-11T06:24:59.225Z,-0.10
2019-01-11T06:27:52.885Z,-0.10
2019-01-11T06:30:37.653Z,-0.10
2019-01-11T06:33:22.314Z,-0.10
2019-01-11T06:36:07.060Z,-0.20
2019-01-11T06:39:01.845Z,-0.20
2019-01-11T06:41:53.425Z,-0.20
2019-01-11T06:44:50.565Z,-0.20
2019-01-11T06:47:35.700Z,-0.20
2019-01-11T06:50:20.397Z,-0.20
2019-01-11T06:53:04.898Z,-0.10
2019-01-11T06:55:49.558Z,0.00
2019-01-11T06:58:34.398Z,0.00
2019-01-11T07:01:19.259Z,0.00
2019-01-11T07:04:03.752Z,0.00
2019-01-11T07:06:57.019Z,-0.10
2019-01-11T07:09:41.938Z,-0.10
2019-01-11T07:12:26.665Z,0.00
2019-01-11T07:15:11.329Z,0.00
2019-01-11T07:17:56.402Z,0.00
2019-01-11T07:20:43.002Z,0.00
2019-01-11T07:23:36.661Z,0.00
2019-01-11T07:26:21.677Z,0.00
2019-01-11T07:29:06.281Z,0.10
2019-01-11T07:31:51.205Z,0.10
2019-01-11T07:34:35.777Z,0.20
2019-01-11T07:37:21.120Z,0.30
2019-01-11T07:40:15.040Z,0.30
2019-01-11T07:42:59.543Z,0.30
2019-01-11T07:45:44.590Z,0.40
2019-01-11T07:48:28.846Z,0.40
2019-01-11T07:51:13.133Z,0.40
2019-01-11T07:54:06.544Z,0.40
2019-01-11T07:56:52.896Z,0.50
2019-01-11T07:59:38.350Z,0.60
2019-01-11T08:02:31.657Z,0.60
2019-01-11T08:05:16.650Z,0.70
2019-01-11T08:08:01.362Z,0.60
2019-01-11T08:10:46.227Z,0.60
2019-01-11T08:13:31.225Z,0.60
2019-01-11T08:16:16.069Z,0.60
2019-01-11T08:19:00.895Z,0.60
2019-01-11T08:21:45.982Z,0.60
2019-01-11T08:24:41.201Z,0.60
2019-01-11T08:27:25.706Z,0.60
2019-01-11T08:30:10.699Z,0.50
2019-01-11T08:32:55.590Z,0.50
2019-01-11T08:35:40.060Z,0.60
2019-01-11T08:38:24.881Z,0.60
2019-01-11T08:41:09.629Z,0.60
2019-01-11T08:43:54.430Z,0.60
2019-01-11T08:46:39.267Z,0.60
2019-01-11T08:49:24.137Z,0.70
2019-01-11T08:52:09.234Z,0.70
2019-01-11T08:54:53.983Z,0.70
2019-01-11T08:57:38.813Z,0.70
2019-01-11T09:00:23.745Z,0.70
2019-01-11T09:03:08.802Z,0.60
2019-01-11T09:06:02.759Z,0.60
2019-01-11T09:08:47.398Z,0.60
2019-01-11T09:11:32.151Z,0.60
2019-01-11T09:14:35.322Z,0.60
2019-01-11T09:17:31.130Z,0.70
2019-01-11T09:20:16.083Z,0.70
2019-01-11T09:23:01.093Z,0.80
2019-01-11T09:25:45.613Z,0.80
2019-01-11T09:28:30.021Z,0.90
2019-01-11T09:31:23.845Z,0.90
2019-01-11T09:34:17.426Z,1.00
2019-01-11T09:37:02.309Z,1.10
2019-01-11T09:39:47.183Z,1.30
2019-01-11T09:42:31.894Z,1.30
2019-01-11T09:45:16.681Z,1.20
2019-01-11T09:48:01.413Z,1.30
2019-01-11T09:50:48.566Z,1.40
2019-01-11T09:53:42.028Z,1.50
2019-01-11T09:56:26.958Z,1.50
2019-01-11T09:59:11.829Z,1.40
2019-01-11T10:02:15.214Z,1.50
2019-01-11T10:04:59.497Z,1.40
2019-01-11T10:07:52.656Z,1.40
2019-01-11T10:10:37.373Z,1.30
2019-01-11T10:13:22.026Z,1.20
2019-01-11T10:16:06.854Z,1.40
2019-01-11T10:18:51.594Z,1.40
2019-01-11T10:21:36.946Z,1.60
2019-01-11T10:24:21.331Z,2.00
2019-01-11T10:27:06.172Z,2.30
2019-01-11T10:29:50.983Z,2.30
2019-01-11T10:32:35.933Z,2.30
2019-01-11T10:35:21.056Z,2.40
2019-01-11T10:38:06.026Z,2.60
2019-01-11T10:40:52.169Z,2.40
2019-01-11T10:43:37.263Z,2.10
2019-01-11T10:46:35.652Z,2.00
2019-01-11T10:49:43.873Z,1.90
2019-01-11T10:52:37.741Z,2.10
2019-01-11T10:55:22.626Z,2.10
2019-01-11T10:58:16.157Z,2.30
2019-01-11T11:01:01.107Z,2.30
2019-01-11T11:03:45.558Z,2.10
2019-01-11T11:06:29.902Z,1.90
2019-01-11T11:09:23.833Z,2.10
2019-01-11T11:12:17.709Z,2.30
2019-01-11T11:15:02.390Z,2.30
2019-01-11T11:17:46.885Z,2.00
2019-01-11T11:20:31.402Z,2.30
2019-01-11T11:23:17.496Z,2.20
2019-01-11T11:26:10.994Z,2.10
2019-01-11T11:28:56.318Z,2.10
2019-01-11T11:31:50.373Z,2.10
2019-01-11T11:34:45.812Z,2.20
2019-01-11T11:37:39.933Z,2.30
2019-01-11T11:40:33.893Z,2.10
2019-01-11T11:43:18.685Z,2.10
2019-01-11T11:46:03.834Z,2.00
2019-01-11T11:48:57.208Z,2.10
2019-01-11T11:51:42.278Z,2.00
2019-01-11T11:54:27.386Z,2.00
2019-01-11T11:57:20.998Z,2.20
2019-01-11T12:00:05.794Z,2.40
2019-01-11T12:02:50.899Z,2.60
2019-01-11T12:05:35.622Z,2.50
2019-01-11T12:08:19.917Z,2.70
2019-01-11T12:11:04.929Z,2.60
2019-01-11T12:13:49.439Z,2.70
2019-01-11T12:16:34.342Z,2.50
2019-01-11T12:19:18.494Z,2.20
2019-01-11T12:22:12.337Z,2.30
2019-01-11T12:25:06.065Z,2.40
2019-01-11T12:27:50.842Z,2.80
2019-01-11T12:30:35.643Z,3.00
2019-01-11T12:33:20.212Z,2.80
2019-01-11T12:36:05.259Z,3.00
2019-01-11T12:38:50.193Z,2.80
2019-01-11T12:41:35.189Z,2.80
2019-01-11T12:44:28.867Z,2.90
2019-01-11T12:47:13.859Z,3.10
2019-01-11T12:49:58.589Z,3.00
2019-01-11T12:52:43.194Z,2.80
2019-01-11T12:55:27.932Z,2.80
2019-01-11T12:58:12.657Z,2.70
2019-01-11T13:00:56.846Z,2.60
2019-01-11T13:03:50.397Z,2.20
2019-01-11T13:06:34.735Z,2.10
2019-01-11T13:09:19.258Z,2.10
2019-01-11T13:12:04.378Z,2.10
2019-01-11T13:14:49.125Z,2.10
2019-01-11T13:17:33.589Z,2.30
2019-01-11T13:20:17.790Z,2.70
2019-01-11T13:23:11.830Z,3.00
2019-01-11T13:26:05.734Z,3.20
2019-01-11T13:28:51.108Z,3.10
2019-01-11T13:31:36.243Z,3.30
2019-01-11T13:34:20.663Z,3.20
2019-01-11T13:37:14.110Z,2.80
2019-01-11T13:39:59.090Z,2.50
2019-01-11T13:42:52.822Z,2.30
2019-01-11T13:45:38.101Z,2.10
2019-01-11T13:48:31.752Z,2.00
2019-01-11T13:51:16.165Z,2.00
2019-01-11T13:54:03.257Z,1.90
2019-01-11T13:56:56.925Z,1.80
2019-01-11T13:59:41.918Z,2.10
2019-01-11T14:02:27.041Z,1.90
2019-01-11T14:05:20.821Z,1.90
2019-01-11T14:08:06.066Z,2.00
2019-01-11T14:10:59.550Z,2.00
2019-01-11T14:13:45.390Z,1.80
2019-01-11T14:16:30.577Z,1.80
2019-01-11T14:19:13.691Z,1.80
2019-01-11T14:22:06.123Z,1.90
2019-01-11T14:24:50.814Z,2.00
2019-01-11T14:27:35.429Z,2.00
2019-01-11T14:30:29.229Z,1.90
2019-01-11T14:33:23.369Z,1.80
2019-01-11T14:36:17.194Z,1.90
2019-01-11T14:39:01.525Z,2.00
2019-01-11T14:41:48.042Z,2.50
2019-01-11T14:44:32.968Z,2.80
2019-01-11T14:47:17.753Z,2.80
2019-01-11T14:50:03.217Z,2.60
2019-01-11T14:52:56.645Z,2.80
2019-01-11T14:55:41.361Z,3.10
2019-01-11T14:58:28.793Z,3.30
2019-01-11T15:01:12.562Z,3.30
2019-01-11T15:03:57.165Z,3.20
2019-01-11T15:06:41.850Z,3.30
2019-01-11T15:09:26.713Z,3.40
2019-01-11T15:12:11.221Z,3.10
2019-01-11T15:14:55.814Z,3.00
2019-01-11T15:17:49.183Z,2.90
2019-01-11T15:20:33.998Z,3.20
2019-01-11T15:23:19.006Z,3.40
2019-01-11T15:26:03.898Z,3.30
2019-01-11T15:28:57.438Z,3.20
2019-01-11T15:31:42.213Z,2.90
2019-01-11T15:34:26.890Z,2.70
2019-01-11T15:37:11.550Z,2.50
2019-01-11T15:39:56.902Z,2.20
2019-01-11T15:42:41.241Z,2.40
2019-01-11T15:45:26.710Z,2.70
2019-01-11T15:48:11.510Z,2.40
2019-01-11T15:50:56.672Z,2.10
2019-01-11T15:53:50.268Z,2.00
2019-01-11T15:56:35.050Z,2.00
2019-01-11T15:59:19.949Z,2.00
2019-01-11T16:02:05.046Z,2.00
2019-01-11T16:04:58.432Z,2.00
2019-01-11T16:07:43.026Z,2.00
2019-01-11T16:10:28.000Z,1.90
2019-01-11T16:13:12.253Z,1.90
2019-01-11T16:15:56.905Z,2.10
2019-01-11T16:18:50.585Z,2.20
2019-01-11T16:21:42.997Z,2.10
2019-01-11T16:24:30.097Z,2.00
2019-01-11T16:27:24.930Z,2.00
2019-01-11T16:30:10.166Z,1.90
2019-01-11T16:33:03.633Z,1.80
2019-01-11T16:35:48.229Z,1.80
2019-01-11T16:38:32.413Z,1.70
2019-01-11T16:41:25.798Z,1.60
2019-01-11T16:44:10.438Z,1.70
2019-01-11T16:46:55.414Z,1.70
2019-01-11T16:49:53.646Z,1.80
2019-01-11T16:52:36.924Z,1.80
2019-01-11T16:55:30.237Z,1.80
2019-01-11T16:58:15.699Z,1.90
2019-01-11T17:01:09.457Z,2.20
2019-01-11T17:04:03.492Z,2.40
2019-01-11T17:06:57.108Z,2.50
2019-01-11T17:09:41.832Z,2.60
2019-01-11T17:12:26.813Z,2.70
2019-01-11T17:15:11.366Z,2.50
2019-01-11T17:17:56.421Z,2.10
2019-01-11T17:20:41.249Z,2.00
2019-01-11T17:23:26.109Z,1.90
2019-01-11T17:26:11.069Z,1.80
2019-01-11T17:28:55.838Z,1.80
2019-01-11T17:31:40.410Z,1.90
2019-01-11T17:34:24.903Z,1.90
2019-01-11T17:37:09.689Z,2.00
2019-01-11T17:39:54.961Z,2.40
2019-01-11T17:42:39.582Z,2.00
2019-01-11T17:45:24.737Z,1.80
2019-01-11T17:48:09.288Z,1.70
2019-01-11T17:50:53.978Z,1.60
2019-01-11T17:53:38.490Z,1.60
2019-01-11T17:56:24.748Z,1.60
2019-01-11T17:59:09.182Z,1.70
2019-01-11T18:02:02.501Z,2.00
2019-01-11T18:04:47.293Z,2.00
2019-01-11T18:07:31.634Z,2.20
2019-01-11T18:10:16.318Z,2.30
2019-01-11T18:13:01.425Z,2.20
2019-01-11T18:15:46.097Z,2.20
2019-01-11T18:18:30.903Z,2.10
2019-01-11T18:21:15.962Z,2.10
2019-01-11T18:24:00.709Z,2.00
2019-01-11T18:26:45.743Z,1.90
2019-01-11T18:29:30.443Z,1.90
2019-01-11T18:32:16.535Z,1.90
2019-01-11T18:35:01.450Z,1.90
2019-01-11T18:37:46.782Z,1.90
2019-01-11T18:40:41.282Z,2.00
2019-01-11T18:43:37.593Z,1.90
2019-01-11T18:46:31.621Z,1.90
2019-01-11T18:49:45.651Z,1.90
2019-01-11T18:52:31.230Z,2.00
2019-01-11T18:55:16.227Z,2.00
2019-01-11T18:58:02.546Z,1.90
2019-01-11T19:00:47.389Z,1.90
2019-01-11T19:03:31.918Z,2.00
2019-01-11T19:06:25.245Z,2.40
2019-01-11T19:09:09.694Z,2.90
2019-01-11T19:11:54.450Z,2.80
2019-01-11T19:14:39.122Z,2.70
2019-01-11T19:17:23.809Z,2.60
2019-01-11T19:20:08.805Z,2.50
2019-01-11T19:22:53.470Z,2.50
2019-01-11T19:25:37.874Z,2.60
2019-01-11T19:28:31.849Z,2.50
2019-01-11T19:31:26.119Z,2.40
2019-01-11T19:34:19.589Z,2.50
2019-01-11T19:37:04.074Z,2.70
2019-01-11T19:39:48.890Z,3.10
2019-01-11T19:42:33.690Z,3.10
2019-01-11T19:45:19.037Z,2.90
2019-01-11T19:48:12.925Z,3.00
2019-01-11T19:50:57.413Z,2.90
2019-01-11T19:53:41.668Z,2.80
2019-01-11T19:56:26.613Z,2.60
2019-01-11T19:59:11.254Z,2.50
2019-01-11T20:01:56.250Z,2.40
2019-01-11T20:04:41.442Z,2.40
2019-01-11T20:07:26.141Z,2.30
2019-01-11T20:10:11.349Z,2.50
2019-01-11T20:12:55.976Z,2.50
2019-01-11T20:15:40.900Z,2.50
2019-01-11T20:18:25.837Z,2.40
2019-01-11T20:21:10.354Z,2.80
2019-01-11T20:23:55.626Z,3.10
2019-01-11T20:26:49.181Z,3.00
2019-01-11T20:29:34.014Z,2.90
2019-01-11T20:32:18.706Z,2.80
2019-01-11T20:35:03.170Z,2.70
2019-01-11T20:37:47.908Z,2.70
2019-01-11T20:40:32.449Z,3.10
2019-01-11T20:43:26.065Z,3.10
2019-01-11T20:46:19.904Z,2.90
2019-01-11T20:49:04.759Z,3.00
2019-01-11T20:51:49.334Z,3.20
2019-01-11T20:54:34.334Z,3.30
2019-01-11T20:57:19.059Z,3.50
2019-01-11T21:00:04.747Z,3.60
2019-01-11T21:02:50.539Z,3.60
2019-01-11T21:05:44.309Z,3.70
2019-01-11T21:08:29.153Z,3.50
2019-01-11T21:11:13.962Z,3.70
2019-01-11T21:13:58.065Z,3.80
2019-01-11T21:16:42.959Z,4.10
2019-01-11T21:19:27.977Z,4.00
2019-01-11T21:22:12.850Z,4.10
2019-01-11T21:25:00.227Z,4.20
2019-01-11T21:27:43.994Z,4.10
2019-01-11T21:30:29.274Z,3.70
2019-01-11T21:33:15.056Z,3.40
2019-01-11T21:35:59.729Z,3.30
2019-01-11T21:38:44.149Z,3.30
2019-01-11T21:41:37.633Z,3.20
2019-01-11T21:44:21.786Z,3.00
2019-01-11T21:47:07.350Z,2.90
2019-01-11T21:49:52.535Z,2.90
2019-01-11T21:52:45.977Z,3.10
2019-01-11T21:55:30.770Z,3.20
2019-01-11T21:58:15.698Z,3.10
2019-01-11T22:01:00.434Z,3.10
2019-01-11T22:03:45.745Z,3.00
2019-01-11T22:06:39.645Z,3.00
2019-01-11T22:09:33.353Z,2.90
2019-01-11T22:12:18.246Z,2.90
2019-01-11T22:15:03.620Z,2.90
2019-01-11T22:17:57.177Z,2.90
2019-01-11T22:20:41.964Z,2.80
2019-01-11T22:23:26.515Z,2.80
2019-01-11T22:26:11.007Z,3.00
2019-01-11T22:28:55.690Z,3.30
2019-01-11T22:31:40.189Z,3.60
2019-01-11T22:34:33.694Z,3.80
2019-01-11T22:37:18.261Z,3.70
2019-01-11T22:40:02.927Z,3.70
2019-01-11T22:42:47.259Z,3.80
2019-01-11T22:45:32.406Z,3.90
2019-01-11T22:48:16.883Z,3.60
2019-01-11T22:51:01.729Z,3.40
2019-01-11T22:53:46.229Z,3.20
2019-01-11T22:56:39.529Z,3.10
2019-01-11T22:59:24.587Z,3.10
2019-01-11T23:02:09.314Z,3.10
2019-01-11T23:04:54.218Z,3.10
2019-01-11T23:07:38.864Z,3.00
2019-01-11T23:10:23.273Z,3.00
2019-01-11T23:13:08.172Z,3.10
2019-01-11T23:15:52.822Z,3.30
2019-01-11T23:18:37.642Z,3.30
2019-01-11T23:21:22.307Z,3.10
2019-01-11T23:24:08.869Z,3.00
2019-01-11T23:26:53.458Z,2.90
2019-01-11T23:29:38.441Z,3.00
2019-01-11T23:32:23.303Z,3.10
2019-01-11T23:35:08.003Z,3.30
2019-01-11T23:37:52.704Z,3.30
2019-01-11T23:40:37.366Z,3.30
2019-01-11T23:43:22.177Z,3.30
2019-01-11T23:46:06.625Z,3.30
2019-01-11T23:48:59.913Z,3.30
2019-01-11T23:51:45.397Z,3.30
2019-01-11T23:54:39.129Z,3.40
2019-01-11T23:57:23.585Z,3.50
